sensor_id;sensor_type;location;lat;lon;timestamp;P1;durP1;ratioP1;P2;durP2;ratioP2
22318;SDS011;11327;52.334;9.506;2023-07-08T00:02:12;3.10;;;2.65;;
22318;SDS011;11327;52.334;9.506;2023-07-08T00:05:31;4.47;;;2.50;;
22318;SDS011;11327;52.334;9.506;2023-07-08T00:08:52;2.85;;;2.52;;
22318;SDS011;11327;52.334;9.506;2023-07-08T00:12:13;2.92;;;2.47;;
22318;SDS011;11327;52.334;9.506;2023-07-08T00:15:34;4.87;;;3.00;;
22318;SDS011;11327;52.334;9.506;2023-07-08T00:18:56;3.05;;;2.33;;
22318;SDS011;11327;52.334;9.506;2023-07-08T00:22:17;3.95;;;2.60;;
22318;SDS011;11327;52.334;9.506;2023-07-08T00:25:37;3.35;;;2.77;;
22318;SDS011;11327;52.334;9.506;2023-07-08T00:28:59;3.67;;;2.58;;
22318;SDS011;11327;52.334;9.506;2023-07-08T00:32:19;3.92;;;2.47;;
22318;SDS011;11327;52.334;9.506;2023-07-08T00:35:41;2.87;;;2.52;;
22318;SDS011;11327;52.334;9.506;2023-07-08T00:39:04;2.77;;;2.47;;
22318;SDS011;11327;52.334;9.506;2023-07-08T00:42:27;4.55;;;2.72;;
22318;SDS011;11327;52.334;9.506;2023-07-08T00:45:49;3.33;;;2.35;;
22318;SDS011;11327;52.334;9.506;2023-07-08T00:53:16;3.05;;;2.45;;
22318;SDS011;11327;52.334;9.506;2023-07-08T01:00:33;3.98;;;2.90;;
22318;SDS011;11327;52.334;9.506;2023-07-08T01:03:56;3.10;;;2.58;;
22318;SDS011;11327;52.334;9.506;2023-07-08T01:07:25;3.63;;;2.40;;
22318;SDS011;11327;52.334;9.506;2023-07-08T01:10:48;3.27;;;2.30;;
22318;SDS011;11327;52.334;9.506;2023-07-08T01:14:14;2.65;;;2.22;;
22318;SDS011;11327;52.334;9.506;2023-07-08T01:17:38;4.95;;;2.27;;
22318;SDS011;11327;52.334;9.506;2023-07-08T01:21:01;4.25;;;2.27;;
22318;SDS011;11327;52.334;9.506;2023-07-08T01:24:27;4.67;;;2.55;;
22318;SDS011;11327;52.334;9.506;2023-07-08T01:27:52;3.87;;;2.27;;
22318;SDS011;11327;52.334;9.506;2023-07-08T01:31:14;3.52;;;2.40;;
22318;SDS011;11327;52.334;9.506;2023-07-08T01:34:35;2.85;;;2.00;;
22318;SDS011;11327;52.334;9.506;2023-07-08T01:37:59;4.60;;;2.55;;
22318;SDS011;11327;52.334;9.506;2023-07-08T01:41:21;4.33;;;2.42;;
22318;SDS011;11327;52.334;9.506;2023-07-08T01:44:42;4.45;;;2.50;;
22318;SDS011;11327;52.334;9.506;2023-07-08T01:48:08;4.95;;;2.27;;
22318;SDS011;11327;52.334;9.506;2023-07-08T01:51:27;5.12;;;2.67;;
22318;SDS011;11327;52.334;9.506;2023-07-08T01:54:54;3.98;;;2.77;;
22318;SDS011;11327;52.334;9.506;2023-07-08T01:58:17;5.60;;;2.50;;
22318;SDS011;11327;52.334;9.506;2023-07-08T02:01:37;4.30;;;3.05;;
22318;SDS011;11327;52.334;9.506;2023-07-08T02:04:58;3.05;;;2.50;;
22318;SDS011;11327;52.334;9.506;2023-07-08T02:08:19;3.98;;;2.67;;
22318;SDS011;11327;52.334;9.506;2023-07-08T02:11:40;3.83;;;3.10;;
22318;SDS011;11327;52.334;9.506;2023-07-08T02:15:01;6.72;;;3.00;;
22318;SDS011;11327;52.334;9.506;2023-07-08T02:18:23;5.35;;;2.90;;
22318;SDS011;11327;52.334;9.506;2023-07-08T02:21:46;3.70;;;2.92;;
22318;SDS011;11327;52.334;9.506;2023-07-08T02:25:07;4.03;;;2.80;;
22318;SDS011;11327;52.334;9.506;2023-07-08T02:28:29;3.75;;;2.47;;
22318;SDS011;11327;52.334;9.506;2023-07-08T02:31:50;4.22;;;2.83;;
22318;SDS011;11327;52.334;9.506;2023-07-08T02:35:10;3.40;;;2.83;;
22318;SDS011;11327;52.334;9.506;2023-07-08T02:38:31;4.00;;;2.80;;
22318;SDS011;11327;52.334;9.506;2023-07-08T02:41:52;4.40;;;2.72;;
22318;SDS011;11327;52.334;9.506;2023-07-08T02:45:13;6.35;;;2.98;;
22318;SDS011;11327;52.334;9.506;2023-07-08T02:48:34;6.30;;;2.98;;
22318;SDS011;11327;52.334;9.506;2023-07-08T02:51:55;6.53;;;3.45;;
22318;SDS011;11327;52.334;9.506;2023-07-08T02:55:15;5.50;;;3.50;;
22318;SDS011;11327;52.334;9.506;2023-07-08T02:58:36;6.15;;;3.65;;
22318;SDS011;11327;52.334;9.506;2023-07-08T03:01:57;4.70;;;3.62;;
22318;SDS011;11327;52.334;9.506;2023-07-08T03:05:18;4.78;;;3.65;;
22318;SDS011;11327;52.334;9.506;2023-07-08T03:08:39;5.97;;;3.52;;
22318;SDS011;11327;52.334;9.506;2023-07-08T03:12:00;7.65;;;3.77;;
22318;SDS011;11327;52.334;9.506;2023-07-08T03:15:21;6.20;;;3.42;;
22318;SDS011;11327;52.334;9.506;2023-07-08T03:18:41;6.72;;;3.35;;
22318;SDS011;11327;52.334;9.506;2023-07-08T03:22:04;8.30;;;2.92;;
22318;SDS011;11327;52.334;9.506;2023-07-08T03:25:26;6.67;;;3.02;;
22318;SDS011;11327;52.334;9.506;2023-07-08T03:28:47;3.87;;;2.70;;
22318;SDS011;11327;52.334;9.506;2023-07-08T03:32:11;3.77;;;2.47;;
22318;SDS011;11327;52.334;9.506;2023-07-08T03:35:32;4.62;;;2.50;;
22318;SDS011;11327;52.334;9.506;2023-07-08T03:38:54;6.70;;;3.10;;
22318;SDS011;11327;52.334;9.506;2023-07-08T03:42:17;7.58;;;3.37;;
22318;SDS011;11327;52.334;9.506;2023-07-08T03:45:37;5.45;;;3.40;;
22318;SDS011;11327;52.334;9.506;2023-07-08T03:48:58;5.97;;;3.30;;
22318;SDS011;11327;52.334;9.506;2023-07-08T03:52:19;5.05;;;3.50;;
22318;SDS011;11327;52.334;9.506;2023-07-08T03:55:39;3.95;;;3.50;;
22318;SDS011;11327;52.334;9.506;2023-07-08T03:59:00;5.87;;;3.50;;
22318;SDS011;11327;52.334;9.506;2023-07-08T04:02:21;4.47;;;3.20;;
22318;SDS011;11327;52.334;9.506;2023-07-08T04:05:41;5.33;;;3.47;;
22318;SDS011;11327;52.334;9.506;2023-07-08T04:09:02;5.37;;;3.33;;
22318;SDS011;11327;52.334;9.506;2023-07-08T04:12:23;6.78;;;3.90;;
22318;SDS011;11327;52.334;9.506;2023-07-08T04:15:44;6.17;;;3.85;;
22318;SDS011;11327;52.334;9.506;2023-07-08T04:19:05;7.95;;;4.20;;
22318;SDS011;11327;52.334;9.506;2023-07-08T04:22:28;7.22;;;3.90;;
22318;SDS011;11327;52.334;9.506;2023-07-08T04:25:48;5.97;;;4.10;;
22318;SDS011;11327;52.334;9.506;2023-07-08T04:29:11;9.48;;;4.25;;
22318;SDS011;11327;52.334;9.506;2023-07-08T04:32:33;7.17;;;3.83;;
22318;SDS011;11327;52.334;9.506;2023-07-08T04:35:54;12.75;;;4.90;;
22318;SDS011;11327;52.334;9.506;2023-07-08T04:39:15;7.95;;;4.62;;
22318;SDS011;11327;52.334;9.506;2023-07-08T04:42:35;9.10;;;4.65;;
22318;SDS011;11327;52.334;9.506;2023-07-08T04:45:56;6.72;;;4.40;;
22318;SDS011;11327;52.334;9.506;2023-07-08T04:49:17;8.00;;;4.95;;
22318;SDS011;11327;52.334;9.506;2023-07-08T04:52:38;6.78;;;4.60;;
22318;SDS011;11327;52.334;9.506;2023-07-08T04:55:59;5.90;;;4.58;;
22318;SDS011;11327;52.334;9.506;2023-07-08T04:59:21;8.48;;;4.60;;
22318;SDS011;11327;52.334;9.506;2023-07-08T05:02:43;6.92;;;4.60;;
22318;SDS011;11327;52.334;9.506;2023-07-08T05:06:04;6.55;;;4.83;;
22318;SDS011;11327;52.334;9.506;2023-07-08T05:09:25;9.33;;;5.30;;
22318;SDS011;11327;52.334;9.506;2023-07-08T05:12:46;6.55;;;5.20;;
22318;SDS011;11327;52.334;9.506;2023-07-08T05:16:07;8.93;;;5.33;;
22318;SDS011;11327;52.334;9.506;2023-07-08T05:19:28;5.65;;;5.12;;
22318;SDS011;11327;52.334;9.506;2023-07-08T05:22:49;7.17;;;5.03;;
22318;SDS011;11327;52.334;9.506;2023-07-08T05:26:09;6.72;;;5.12;;
22318;SDS011;11327;52.334;9.506;2023-07-08T05:29:30;7.92;;;5.28;;
22318;SDS011;11327;52.334;9.506;2023-07-08T05:32:51;6.35;;;4.97;;
22318;SDS011;11327;52.334;9.506;2023-07-08T05:36:13;6.55;;;5.00;;
22318;SDS011;11327;52.334;9.506;2023-07-08T05:39:34;8.23;;;5.10;;
22318;SDS011;11327;52.334;9.506;2023-07-08T05:42:55;6.60;;;4.90;;
22318;SDS011;11327;52.334;9.506;2023-07-08T05:46:15;7.05;;;5.83;;
22318;SDS011;11327;52.334;9.506;2023-07-08T05:49:36;7.05;;;5.53;;
22318;SDS011;11327;52.334;9.506;2023-07-08T05:52:57;7.72;;;5.67;;
22318;SDS011;11327;52.334;9.506;2023-07-08T05:56:17;6.12;;;5.53;;
22318;SDS011;11327;52.334;9.506;2023-07-08T05:59:38;5.80;;;5.30;;
22318;SDS011;11327;52.334;9.506;2023-07-08T06:02:59;6.60;;;5.03;;
22318;SDS011;11327;52.334;9.506;2023-07-08T06:06:20;6.10;;;5.50;;
22318;SDS011;11327;52.334;9.506;2023-07-08T06:09:41;8.18;;;5.85;;
22318;SDS011;11327;52.334;9.506;2023-07-08T06:13:01;7.53;;;5.62;;
22318;SDS011;11327;52.334;9.506;2023-07-08T06:16:24;6.85;;;5.28;;
22318;SDS011;11327;52.334;9.506;2023-07-08T06:19:44;7.83;;;5.20;;
22318;SDS011;11327;52.334;9.506;2023-07-08T06:23:05;8.38;;;5.75;;
22318;SDS011;11327;52.334;9.506;2023-07-08T06:26:26;8.45;;;5.85;;
22318;SDS011;11327;52.334;9.506;2023-07-08T06:29:46;6.60;;;5.10;;
22318;SDS011;11327;52.334;9.506;2023-07-08T06:33:07;7.10;;;5.22;;
22318;SDS011;11327;52.334;9.506;2023-07-08T06:36:28;7.45;;;5.35;;
22318;SDS011;11327;52.334;9.506;2023-07-08T06:39:48;8.78;;;5.55;;
22318;SDS011;11327;52.334;9.506;2023-07-08T06:43:09;6.08;;;5.25;;
22318;SDS011;11327;52.334;9.506;2023-07-08T06:46:30;8.25;;;5.45;;
22318;SDS011;11327;52.334;9.506;2023-07-08T06:49:51;7.00;;;5.08;;
22318;SDS011;11327;52.334;9.506;2023-07-08T06:53:11;5.55;;;5.00;;
22318;SDS011;11327;52.334;9.506;2023-07-08T06:56:32;7.15;;;5.12;;
22318;SDS011;11327;52.334;9.506;2023-07-08T06:59:53;7.72;;;5.17;;
22318;SDS011;11327;52.334;9.506;2023-07-08T07:03:13;7.45;;;5.78;;
22318;SDS011;11327;52.334;9.506;2023-07-08T07:06:34;6.92;;;5.10;;
22318;SDS011;11327;52.334;9.506;2023-07-08T07:09:55;5.97;;;5.00;;
22318;SDS011;11327;52.334;9.506;2023-07-08T07:13:16;6.80;;;5.70;;
22318;SDS011;11327;52.334;9.506;2023-07-08T07:16:36;7.80;;;5.10;;
22318;SDS011;11327;52.334;9.506;2023-07-08T07:19:57;6.28;;;4.50;;
22318;SDS011;11327;52.334;9.506;2023-07-08T07:23:18;6.70;;;4.90;;
22318;SDS011;11327;52.334;9.506;2023-07-08T07:26:38;5.12;;;4.62;;
22318;SDS011;11327;52.334;9.506;2023-07-08T07:29:59;6.25;;;5.00;;
22318;SDS011;11327;52.334;9.506;2023-07-08T07:33:20;5.87;;;4.95;;
22318;SDS011;11327;52.334;9.506;2023-07-08T07:36:41;5.28;;;4.78;;
22318;SDS011;11327;52.334;9.506;2023-07-08T07:40:01;5.47;;;4.75;;
22318;SDS011;11327;52.334;9.506;2023-07-08T07:43:22;7.30;;;5.10;;
22318;SDS011;11327;52.334;9.506;2023-07-08T07:46:43;6.60;;;5.03;;
22318;SDS011;11327;52.334;9.506;2023-07-08T07:50:04;6.75;;;4.45;;
22318;SDS011;11327;52.334;9.506;2023-07-08T07:53:26;6.80;;;4.95;;
22318;SDS011;11327;52.334;9.506;2023-07-08T07:56:47;5.72;;;4.55;;
22318;SDS011;11327;52.334;9.506;2023-07-08T08:00:08;8.68;;;5.00;;
22318;SDS011;11327;52.334;9.506;2023-07-08T08:03:30;10.10;;;5.10;;
22318;SDS011;11327;52.334;9.506;2023-07-08T08:06:51;5.10;;;4.60;;
22318;SDS011;11327;52.334;9.506;2023-07-08T08:10:11;5.40;;;4.35;;
22318;SDS011;11327;52.334;9.506;2023-07-08T08:13:32;6.60;;;4.45;;
22318;SDS011;11327;52.334;9.506;2023-07-08T08:16:53;7.58;;;4.65;;
22318;SDS011;11327;52.334;9.506;2023-07-08T08:20:13;6.30;;;4.40;;
22318;SDS011;11327;52.334;9.506;2023-07-08T08:23:34;5.08;;;4.40;;
22318;SDS011;11327;52.334;9.506;2023-07-08T08:26:55;4.90;;;4.40;;
22318;SDS011;11327;52.334;9.506;2023-07-08T08:30:16;5.72;;;4.42;;
22318;SDS011;11327;52.334;9.506;2023-07-08T08:33:36;5.03;;;4.50;;
22318;SDS011;11327;52.334;9.506;2023-07-08T08:36:57;5.17;;;4.30;;
22318;SDS011;11327;52.334;9.506;2023-07-08T08:40:18;4.80;;;4.28;;
22318;SDS011;11327;52.334;9.506;2023-07-08T08:43:39;6.92;;;4.50;;
22318;SDS011;11327;52.334;9.506;2023-07-08T08:50:30;5.92;;;4.35;;
22318;SDS011;11327;52.334;9.506;2023-07-08T08:53:56;6.08;;;4.00;;
22318;SDS011;11327;52.334;9.506;2023-07-08T08:57:31;8.95;;;4.35;;
22318;SDS011;11327;52.334;9.506;2023-07-08T09:00:59;4.80;;;4.17;;
22318;SDS011;11327;52.334;9.506;2023-07-08T09:04:27;5.93;;;4.33;;
22318;SDS011;11327;52.334;9.506;2023-07-08T09:15:13;5.53;;;4.12;;
22318;SDS011;11327;52.334;9.506;2023-07-08T09:18:58;4.55;;;4.10;;
22318;SDS011;11327;52.334;9.506;2023-07-08T09:22:38;5.08;;;4.12;;
22318;SDS011;11327;52.334;9.506;2023-07-08T09:26:05;4.53;;;3.95;;
22318;SDS011;11327;52.334;9.506;2023-07-08T09:29:27;6.20;;;4.15;;
22318;SDS011;11327;52.334;9.506;2023-07-08T09:32:48;4.55;;;4.08;;
22318;SDS011;11327;52.334;9.506;2023-07-08T09:36:15;5.25;;;4.08;;
22318;SDS011;11327;52.334;9.506;2023-07-08T09:39:39;4.80;;;3.92;;
22318;SDS011;11327;52.334;9.506;2023-07-08T09:43:03;6.40;;;4.00;;
22318;SDS011;11327;52.334;9.506;2023-07-08T09:46:35;5.30;;;3.87;;
22318;SDS011;11327;52.334;9.506;2023-07-08T09:49:57;5.50;;;4.10;;
22318;SDS011;11327;52.334;9.506;2023-07-08T09:53:19;5.95;;;4.28;;
22318;SDS011;11327;52.334;9.506;2023-07-08T09:56:41;5.75;;;4.00;;
22318;SDS011;11327;52.334;9.506;2023-07-08T10:00:08;5.95;;;4.20;;
22318;SDS011;11327;52.334;9.506;2023-07-08T10:03:32;5.17;;;3.83;;
22318;SDS011;11327;52.334;9.506;2023-07-08T10:06:55;4.55;;;4.03;;
22318;SDS011;11327;52.334;9.506;2023-07-08T10:10:24;7.30;;;3.90;;
22318;SDS011;11327;52.334;9.506;2023-07-08T10:13:41;5.17;;;4.15;;
22318;SDS011;11327;52.334;9.506;2023-07-08T10:17:05;7.00;;;4.15;;
22318;SDS011;11327;52.334;9.506;2023-07-08T10:20:28;5.85;;;4.40;;
22318;SDS011;11327;52.334;9.506;2023-07-08T10:27:39;6.60;;;4.70;;
22318;SDS011;11327;52.334;9.506;2023-07-08T10:42:42;8.25;;;4.97;;
22318;SDS011;11327;52.334;9.506;2023-07-08T10:45:46;6.60;;;4.78;;
22318;SDS011;11327;52.334;9.506;2023-07-08T10:49:21;6.60;;;4.78;;
22318;SDS011;11327;52.334;9.506;2023-07-08T10:53:12;6.90;;;4.30;;
22318;SDS011;11327;52.334;9.506;2023-07-08T11:00:30;7.47;;;4.90;;
22318;SDS011;11327;52.334;9.506;2023-07-08T11:07:39;6.12;;;4.67;;
22318;SDS011;11327;52.334;9.506;2023-07-08T11:14:59;8.73;;;4.42;;
22318;SDS011;11327;52.334;9.506;2023-07-08T11:18:28;5.20;;;4.50;;
22318;SDS011;11327;52.334;9.506;2023-07-08T11:21:53;5.53;;;4.37;;
22318;SDS011;11327;52.334;9.506;2023-07-08T11:25:18;6.08;;;4.80;;
22318;SDS011;11327;52.334;9.506;2023-07-08T11:28:41;8.00;;;4.75;;
22318;SDS011;11327;52.334;9.506;2023-07-08T11:32:04;5.80;;;4.40;;
22318;SDS011;11327;52.334;9.506;2023-07-08T11:35:35;7.30;;;4.35;;
22318;SDS011;11327;52.334;9.506;2023-07-08T11:38:58;7.05;;;4.58;;
22318;SDS011;11327;52.334;9.506;2023-07-08T11:42:19;4.75;;;4.28;;
22318;SDS011;11327;52.334;9.506;2023-07-08T11:45:46;5.87;;;4.25;;
22318;SDS011;11327;52.334;9.506;2023-07-08T11:49:12;5.65;;;4.15;;
22318;SDS011;11327;52.334;9.506;2023-07-08T11:52:35;5.28;;;4.45;;
22318;SDS011;11327;52.334;9.506;2023-07-08T11:56:46;6.80;;;4.62;;
22318;SDS011;11327;52.334;9.506;2023-07-08T11:59:36;5.95;;;4.42;;
22318;SDS011;11327;52.334;9.506;2023-07-08T12:03:16;8.55;;;4.55;;
22318;SDS011;11327;52.334;9.506;2023-07-08T12:16:59;5.45;;;4.53;;
22318;SDS011;11327;52.334;9.506;2023-07-08T12:20:30;5.83;;;4.50;;
22318;SDS011;11327;52.334;9.506;2023-07-08T12:23:53;7.47;;;4.90;;
22318;SDS011;11327;52.334;9.506;2023-07-08T12:27:14;6.40;;;4.95;;
22318;SDS011;11327;52.334;9.506;2023-07-08T12:30:35;6.58;;;5.30;;
22318;SDS011;11327;52.334;9.506;2023-07-08T12:33:57;6.12;;;4.90;;
22318;SDS011;11327;52.334;9.506;2023-07-08T12:37:18;5.53;;;4.80;;
22318;SDS011;11327;52.334;9.506;2023-07-08T12:40:40;5.30;;;4.72;;
22318;SDS011;11327;52.334;9.506;2023-07-08T12:44:01;6.62;;;5.00;;
22318;SDS011;11327;52.334;9.506;2023-07-08T12:47:22;5.40;;;4.30;;
22318;SDS011;11327;52.334;9.506;2023-07-08T12:50:43;5.28;;;4.50;;
22318;SDS011;11327;52.334;9.506;2023-07-08T12:54:04;5.47;;;4.80;;
22318;SDS011;11327;52.334;9.506;2023-07-08T12:57:25;5.70;;;4.60;;
22318;SDS011;11327;52.334;9.506;2023-07-08T13:00:46;5.80;;;4.85;;
22318;SDS011;11327;52.334;9.506;2023-07-08T13:04:09;5.58;;;5.00;;
22318;SDS011;11327;52.334;9.506;2023-07-08T13:07:33;5.67;;;4.47;;
22318;SDS011;11327;52.334;9.506;2023-07-08T13:10:57;5.90;;;4.50;;
22318;SDS011;11327;52.334;9.506;2023-07-08T13:14:19;5.12;;;4.53;;
22318;SDS011;11327;52.334;9.506;2023-07-08T13:17:41;5.97;;;4.60;;
22318;SDS011;11327;52.334;9.506;2023-07-08T13:21:03;5.37;;;4.85;;
22318;SDS011;11327;52.334;9.506;2023-07-08T13:24:29;14.43;;;5.40;;
22318;SDS011;11327;52.334;9.506;2023-07-08T13:28:01;5.97;;;4.50;;
22318;SDS011;11327;52.334;9.506;2023-07-08T13:31:24;6.70;;;4.90;;
22318;SDS011;11327;52.334;9.506;2023-07-08T13:34:49;5.62;;;4.78;;
22318;SDS011;11327;52.334;9.506;2023-07-08T13:38:18;5.25;;;4.62;;
22318;SDS011;11327;52.334;9.506;2023-07-08T13:41:42;5.00;;;4.50;;
22318;SDS011;11327;52.334;9.506;2023-07-08T13:45:05;6.97;;;4.67;;
22318;SDS011;11327;52.334;9.506;2023-07-08T13:48:40;5.42;;;4.42;;
22318;SDS011;11327;52.334;9.506;2023-07-08T13:52:04;5.00;;;4.50;;
22318;SDS011;11327;52.334;9.506;2023-07-08T13:55:30;5.03;;;4.53;;
22318;SDS011;11327;52.334;9.506;2023-07-08T13:58:51;5.67;;;4.53;;
22318;SDS011;11327;52.334;9.506;2023-07-08T14:02:25;6.05;;;4.47;;
22318;SDS011;11327;52.334;9.506;2023-07-08T14:05:48;5.35;;;4.28;;
22318;SDS011;11327;52.334;9.506;2023-07-08T14:09:16;5.30;;;4.75;;
22318;SDS011;11327;52.334;9.506;2023-07-08T14:12:38;5.12;;;4.53;;
22318;SDS011;11327;52.334;9.506;2023-07-08T14:15:59;5.47;;;4.87;;
22318;SDS011;11327;52.334;9.506;2023-07-08T14:19:24;5.12;;;4.45;;
22318;SDS011;11327;52.334;9.506;2023-07-08T14:22:47;6.85;;;4.75;;
22318;SDS011;11327;52.334;9.506;2023-07-08T14:26:11;5.40;;;4.47;;
22318;SDS011;11327;52.334;9.506;2023-07-08T14:29:33;5.80;;;4.95;;
22318;SDS011;11327;52.334;9.506;2023-07-08T14:32:53;5.72;;;5.00;;
22318;SDS011;11327;52.334;9.506;2023-07-08T14:36:14;5.22;;;4.55;;
22318;SDS011;11327;52.334;9.506;2023-07-08T14:39:35;6.40;;;4.53;;
22318;SDS011;11327;52.334;9.506;2023-07-08T14:42:59;5.17;;;4.62;;
22318;SDS011;11327;52.334;9.506;2023-07-08T14:46:22;5.67;;;5.08;;
22318;SDS011;11327;52.334;9.506;2023-07-08T14:49:43;6.97;;;4.72;;
22318;SDS011;11327;52.334;9.506;2023-07-08T14:53:04;6.75;;;4.50;;
22318;SDS011;11327;52.334;9.506;2023-07-08T14:56:24;5.83;;;4.62;;
22318;SDS011;11327;52.334;9.506;2023-07-08T14:59:46;5.35;;;4.80;;
22318;SDS011;11327;52.334;9.506;2023-07-08T15:03:06;5.85;;;4.87;;
22318;SDS011;11327;52.334;9.506;2023-07-08T15:06:27;5.35;;;4.70;;
22318;SDS011;11327;52.334;9.506;2023-07-08T15:09:48;4.97;;;4.47;;
22318;SDS011;11327;52.334;9.506;2023-07-08T15:13:08;6.00;;;4.83;;
22318;SDS011;11327;52.334;9.506;2023-07-08T15:16:30;5.28;;;4.40;;
22318;SDS011;11327;52.334;9.506;2023-07-08T15:19:52;5.87;;;4.62;;
22318;SDS011;11327;52.334;9.506;2023-07-08T15:23:12;5.35;;;4.33;;
22318;SDS011;11327;52.334;9.506;2023-07-08T15:26:33;7.03;;;4.70;;
22318;SDS011;11327;52.334;9.506;2023-07-08T15:29:54;5.08;;;4.53;;
22318;SDS011;11327;52.334;9.506;2023-07-08T15:33:15;6.67;;;4.80;;
22318;SDS011;11327;52.334;9.506;2023-07-08T15:36:36;7.45;;;4.65;;
22318;SDS011;11327;52.334;9.506;2023-07-08T15:39:57;5.20;;;4.65;;
22318;SDS011;11327;52.334;9.506;2023-07-08T15:43:18;6.30;;;4.60;;
22318;SDS011;11327;52.334;9.506;2023-07-08T15:46:42;6.62;;;4.90;;
22318;SDS011;11327;52.334;9.506;2023-07-08T15:50:17;5.75;;;4.67;;
22318;SDS011;11327;52.334;9.506;2023-07-08T15:53:38;5.50;;;4.80;;
22318;SDS011;11327;52.334;9.506;2023-07-08T15:56:59;6.85;;;5.05;;
22318;SDS011;11327;52.334;9.506;2023-07-08T16:00:21;5.22;;;4.70;;
22318;SDS011;11327;52.334;9.506;2023-07-08T16:03:44;5.10;;;4.60;;
22318;SDS011;11327;52.334;9.506;2023-07-08T16:07:07;6.25;;;4.65;;
22318;SDS011;11327;52.334;9.506;2023-07-08T16:10:29;6.03;;;4.47;;
22318;SDS011;11327;52.334;9.506;2023-07-08T16:13:51;5.95;;;4.70;;
22318;SDS011;11327;52.334;9.506;2023-07-08T16:17:12;5.35;;;4.80;;
22318;SDS011;11327;52.334;9.506;2023-07-08T16:20:32;5.12;;;4.62;;
22318;SDS011;11327;52.334;9.506;2023-07-08T16:23:53;5.55;;;4.87;;
22318;SDS011;11327;52.334;9.506;2023-07-08T16:27:14;6.30;;;4.37;;
22318;SDS011;11327;52.334;9.506;2023-07-08T16:30:35;6.35;;;4.72;;
22318;SDS011;11327;52.334;9.506;2023-07-08T16:33:56;5.25;;;4.70;;
22318;SDS011;11327;52.334;9.506;2023-07-08T16:37:17;6.00;;;4.80;;
22318;SDS011;11327;52.334;9.506;2023-07-08T16:40:38;5.25;;;4.65;;
22318;SDS011;11327;52.334;9.506;2023-07-08T16:43:59;5.12;;;4.62;;
22318;SDS011;11327;52.334;9.506;2023-07-08T16:47:20;4.83;;;4.33;;
22318;SDS011;11327;52.334;9.506;2023-07-08T16:50:40;6.78;;;4.75;;
22318;SDS011;11327;52.334;9.506;2023-07-08T16:54:08;5.70;;;4.83;;
22318;SDS011;11327;52.334;9.506;2023-07-08T16:57:32;4.85;;;4.40;;
22318;SDS011;11327;52.334;9.506;2023-07-08T17:00:52;4.97;;;4.37;;
22318;SDS011;11327;52.334;9.506;2023-07-08T17:04:13;5.87;;;4.70;;
22318;SDS011;11327;52.334;9.506;2023-07-08T17:07:35;5.65;;;4.78;;
22318;SDS011;11327;52.334;9.506;2023-07-08T17:10:55;6.17;;;4.40;;
22318;SDS011;11327;52.334;9.506;2023-07-08T17:14:16;5.00;;;4.40;;
22318;SDS011;11327;52.334;9.506;2023-07-08T17:17:37;5.42;;;4.65;;
22318;SDS011;11327;52.334;9.506;2023-07-08T17:20:59;5.95;;;4.95;;
22318;SDS011;11327;52.334;9.506;2023-07-08T17:24:21;7.28;;;4.65;;
22318;SDS011;11327;52.334;9.506;2023-07-08T17:27:42;5.75;;;4.60;;
22318;SDS011;11327;52.334;9.506;2023-07-08T17:31:03;4.95;;;4.40;;
22318;SDS011;11327;52.334;9.506;2023-07-08T17:34:25;5.22;;;4.67;;
22318;SDS011;11327;52.334;9.506;2023-07-08T17:37:47;5.33;;;4.65;;
22318;SDS011;11327;52.334;9.506;2023-07-08T17:41:09;5.47;;;4.50;;
22318;SDS011;11327;52.334;9.506;2023-07-08T17:44:30;5.70;;;4.35;;
22318;SDS011;11327;52.334;9.506;2023-07-08T17:47:51;7.50;;;5.15;;
22318;SDS011;11327;52.334;9.506;2023-07-08T17:51:13;6.03;;;4.92;;
22318;SDS011;11327;52.334;9.506;2023-07-08T17:54:35;5.35;;;4.62;;
22318;SDS011;11327;52.334;9.506;2023-07-08T17:57:56;5.55;;;4.70;;
22318;SDS011;11327;52.334;9.506;2023-07-08T18:01:16;4.90;;;4.40;;
22318;SDS011;11327;52.334;9.506;2023-07-08T18:04:37;4.65;;;4.15;;
22318;SDS011;11327;52.334;9.506;2023-07-08T18:07:58;4.75;;;4.22;;
22318;SDS011;11327;52.334;9.506;2023-07-08T18:11:20;4.60;;;4.20;;
22318;SDS011;11327;52.334;9.506;2023-07-08T18:14:44;4.95;;;4.45;;
22318;SDS011;11327;52.334;9.506;2023-07-08T18:18:08;4.80;;;4.35;;
22318;SDS011;11327;52.334;9.506;2023-07-08T18:21:30;6.03;;;5.15;;
22318;SDS011;11327;52.334;9.506;2023-07-08T18:24:51;6.95;;;5.90;;
22318;SDS011;11327;52.334;9.506;2023-07-08T18:28:11;7.62;;;6.72;;
22318;SDS011;11327;52.334;9.506;2023-07-08T18:31:34;7.78;;;5.65;;
22318;SDS011;11327;52.334;9.506;2023-07-08T18:34:55;5.87;;;5.10;;
22318;SDS011;11327;52.334;9.506;2023-07-08T18:38:16;5.20;;;4.65;;
22318;SDS011;11327;52.334;9.506;2023-07-08T18:41:45;5.22;;;4.70;;
22318;SDS011;11327;52.334;9.506;2023-07-08T18:45:05;5.90;;;4.67;;
22318;SDS011;11327;52.334;9.506;2023-07-08T18:48:27;4.90;;;4.40;;
22318;SDS011;11327;52.334;9.506;2023-07-08T18:51:47;5.42;;;4.40;;
22318;SDS011;11327;52.334;9.506;2023-07-08T18:55:13;5.58;;;4.50;;
22318;SDS011;11327;52.334;9.506;2023-07-08T18:58:37;5.72;;;4.95;;
22318;SDS011;11327;52.334;9.506;2023-07-08T19:01:58;5.53;;;4.70;;
22318;SDS011;11327;52.334;9.506;2023-07-08T19:05:19;5.37;;;4.60;;
22318;SDS011;11327;52.334;9.506;2023-07-08T19:08:41;5.50;;;5.00;;
22318;SDS011;11327;52.334;9.506;2023-07-08T19:12:08;5.47;;;4.95;;
22318;SDS011;11327;52.334;9.506;2023-07-08T19:15:30;5.72;;;4.87;;
22318;SDS011;11327;52.334;9.506;2023-07-08T19:18:52;5.25;;;4.75;;
22318;SDS011;11327;52.334;9.506;2023-07-08T19:22:17;6.72;;;5.30;;
22318;SDS011;11327;52.334;9.506;2023-07-08T19:25:39;5.30;;;4.80;;
22318;SDS011;11327;52.334;9.506;2023-07-08T19:29:00;6.72;;;5.58;;
22318;SDS011;11327;52.334;9.506;2023-07-08T19:32:21;7.72;;;5.33;;
22318;SDS011;11327;52.334;9.506;2023-07-08T19:35:43;6.42;;;5.67;;
22318;SDS011;11327;52.334;9.506;2023-07-08T19:39:05;6.80;;;5.70;;
22318;SDS011;11327;52.334;9.506;2023-07-08T19:42:26;8.13;;;6.08;;
22318;SDS011;11327;52.334;9.506;2023-07-08T19:45:47;7.10;;;6.03;;
22318;SDS011;11327;52.334;9.506;2023-07-08T19:49:09;6.72;;;6.03;;
22318;SDS011;11327;52.334;9.506;2023-07-08T19:52:30;7.30;;;6.00;;
22318;SDS011;11327;52.334;9.506;2023-07-08T19:55:50;7.00;;;5.92;;
22318;SDS011;11327;52.334;9.506;2023-07-08T19:59:12;8.48;;;5.83;;
22318;SDS011;11327;52.334;9.506;2023-07-08T20:02:35;7.03;;;5.47;;
22318;SDS011;11327;52.334;9.506;2023-07-08T20:05:56;8.25;;;6.60;;
22318;SDS011;11327;52.334;9.506;2023-07-08T20:09:18;10.13;;;6.85;;
22318;SDS011;11327;52.334;9.506;2023-07-08T20:12:38;7.22;;;6.30;;
22318;SDS011;11327;52.334;9.506;2023-07-08T20:16:04;8.63;;;6.80;;
22318;SDS011;11327;52.334;9.506;2023-07-08T20:19:41;8.83;;;7.92;;
22318;SDS011;11327;52.334;9.506;2023-07-08T20:23:02;12.33;;;10.98;;
22318;SDS011;11327;52.334;9.506;2023-07-08T20:26:31;11.97;;;10.70;;
22318;SDS011;11327;52.334;9.506;2023-07-08T20:29:55;9.63;;;8.63;;
22318;SDS011;11327;52.334;9.506;2023-07-08T20:33:15;9.73;;;7.47;;
22318;SDS011;11327;52.334;9.506;2023-07-08T20:36:36;7.70;;;6.90;;
22318;SDS011;11327;52.334;9.506;2023-07-08T20:39:57;7.37;;;6.58;;
22318;SDS011;11327;52.334;9.506;2023-07-08T20:43:18;6.90;;;5.83;;
22318;SDS011;11327;52.334;9.506;2023-07-08T20:46:39;6.92;;;6.22;;
22318;SDS011;11327;52.334;9.506;2023-07-08T20:50:08;7.08;;;5.80;;
22318;SDS011;11327;52.334;9.506;2023-07-08T20:53:38;10.00;;;6.37;;
22318;SDS011;11327;52.334;9.506;2023-07-08T20:56:59;11.08;;;6.53;;
22318;SDS011;11327;52.334;9.506;2023-07-08T21:00:24;7.72;;;6.00;;
22318;SDS011;11327;52.334;9.506;2023-07-08T21:03:46;6.58;;;5.97;;
22318;SDS011;11327;52.334;9.506;2023-07-08T21:07:07;8.78;;;6.58;;
22318;SDS011;11327;52.334;9.506;2023-07-08T21:10:29;8.13;;;6.62;;
22318;SDS011;11327;52.334;9.506;2023-07-08T21:13:50;8.85;;;6.87;;
22318;SDS011;11327;52.334;9.506;2023-07-08T21:17:17;7.70;;;6.80;;